KGGG/GGG METAR and TAF weather

Enter ICAO airport designator
Station Type Date Time Source
KGGG METAR 2019/12/07 14:53 UTC NOAA

KGGG 071453Z 04003KT 10SM CLR 09/07 A3031 RMK AO2 SLP264 T00940067 51010


Station Type Date Time Source
KGGG Decoded METAR 2019/12/07 14:53 UTC NOAA

LONGVIEW GREGG COUNTY AIRPORT , TX, United States (KGGG) 32-23N 094-43W 107M
Dec 07, 2019 - 09:53 AM EST / 2019.12.07 1453 UTC
Wind: from the NE (040 degrees) at 3 MPH (3 KT):0
Visibility: 10 mile(s):0
Sky conditions: clear
Temperature: 48.9 F (9.4 C)
Dew Point: 44.1 F (6.7 C)
Relative Humidity: 83%
Pressure (altimeter): 30.31 in. Hg (1026 hPa)
Pressure tendency: 0.03 inches (1.0 hPa) higher than three hours ago
ob: KGGG 071453Z 04003KT 10SM CLR 09/07 A3031 RMK AO2 SLP264 T00940067 51010
cycle: 15

Station Type Date Time Source
KGGG TAF 2019/12/07 12:42 UTC NOAA

TAF KGGG 071140Z 0712/0812 33003KT P6SM FEW040
FM071600 03005KT P6SM OVC025
FM071900 07005KT P6SM OVC050
FM080000 14004KT P6SM FEW250
FM080900 14004KT 5SM BR OVC025

Example: see airport list